createdAt,value
2018-11-12T00:02:00.878Z,2.52
2018-11-12T00:04:29.571Z,1.80
2018-11-12T00:06:58.301Z,3.55
2018-11-12T00:09:27.065Z,6.50
2018-11-12T00:11:55.788Z,4.45
2018-11-12T00:14:24.600Z,4.83
2018-11-12T00:16:53.342Z,3.17
2018-11-12T00:19:22.118Z,2.42
2018-11-12T00:21:50.893Z,1.75
2018-11-12T00:24:19.624Z,2.95
2018-11-12T00:26:48.653Z,8.20
2018-11-12T00:29:17.401Z,2.33
2018-11-12T00:31:46.100Z,2.12
2018-11-12T00:34:14.843Z,2.17
2018-11-12T00:36:43.561Z,3.10
2018-11-12T00:39:13.005Z,3.58
2018-11-12T00:41:42.376Z,3.92
2018-11-12T00:44:11.093Z,3.17
2018-11-12T00:46:39.824Z,6.10
2018-11-12T00:49:08.651Z,3.35
2018-11-12T00:51:37.407Z,2.25
2018-11-12T00:54:06.130Z,3.02
2018-11-12T00:56:34.872Z,5.45
2018-11-12T00:59:03.589Z,3.33
2018-11-12T01:01:32.337Z,2.80
2018-11-12T01:04:01.056Z,2.72
2018-11-12T01:06:29.802Z,1.82
2018-11-12T01:08:58.476Z,2.00
2018-11-12T01:11:27.272Z,2.20
2018-11-12T01:13:55.940Z,2.20
2018-11-12T01:16:24.671Z,3.70
2018-11-12T01:18:53.382Z,1.98
2018-11-12T01:21:22.070Z,2.70
2018-11-12T01:23:50.810Z,3.12
2018-11-12T01:26:19.509Z,5.05
2018-11-12T01:28:48.275Z,2.37
2018-11-12T01:31:17.035Z,2.90
2018-11-12T01:33:45.850Z,3.22
2018-11-12T01:36:14.519Z,3.12
2018-11-12T01:38:43.325Z,4.97
2018-11-12T01:41:12.071Z,2.55
2018-11-12T01:43:40.855Z,3.08
2018-11-12T01:46:09.583Z,3.17
2018-11-12T01:48:38.346Z,5.12
2018-11-12T01:51:07.142Z,3.15
2018-11-12T01:53:35.867Z,3.52
2018-11-12T01:56:05.321Z,4.95
2018-11-12T01:58:34.138Z,1.80
2018-11-12T02:01:02.833Z,3.12
2018-11-12T02:03:31.549Z,1.77
2018-11-12T02:06:00.292Z,2.08
2018-11-12T02:08:29.080Z,6.17
2018-11-12T02:10:57.820Z,2.58
2018-11-12T02:13:27.270Z,2.55
2018-11-12T02:15:55.979Z,2.47
2018-11-12T02:18:24.702Z,2.83
2018-11-12T02:20:53.427Z,1.85
2018-11-12T02:23:22.218Z,2.42
2018-11-12T02:25:50.902Z,6.10
2018-11-12T02:28:19.572Z,3.25
2018-11-12T02:30:49.073Z,2.77
2018-11-12T02:33:18.542Z,3.25
2018-11-12T02:35:47.177Z,3.00
2018-11-12T02:38:15.915Z,3.12
2018-11-12T02:40:44.597Z,4.03
2018-11-12T02:43:13.395Z,2.33
2018-11-12T02:45:42.157Z,10.48
2018-11-12T02:48:10.917Z,2.33
2018-11-12T02:50:39.673Z,5.72
2018-11-12T02:53:08.384Z,2.80
2018-11-12T02:55:37.141Z,1.90
2018-11-12T02:58:05.825Z,2.02
2018-11-12T03:00:34.547Z,2.72
2018-11-12T03:03:03.329Z,3.10
2018-11-12T03:05:32.041Z,4.25
2018-11-12T03:08:02.204Z,3.15
2018-11-12T03:10:30.914Z,3.58
2018-11-12T03:12:59.627Z,2.40
2018-11-12T03:15:28.465Z,2.05
2018-11-12T03:17:58.037Z,5.53
2018-11-12T03:20:26.773Z,2.92
2018-11-12T03:22:55.475Z,2.10
2018-11-12T03:25:25.113Z,6.00
2018-11-12T03:27:53.989Z,3.10
2018-11-12T03:30:23.418Z,4.33
2018-11-12T03:32:52.942Z,2.05
2018-11-12T03:35:22.247Z,2.83
2018-11-12T03:37:51.529Z,2.15
2018-11-12T03:40:22.241Z,2.27
2018-11-12T03:42:51.215Z,2.33
2018-11-12T03:45:22.083Z,2.00
2018-11-12T03:47:50.857Z,2.05
2018-11-12T03:50:20.909Z,2.35
2018-11-12T03:52:49.707Z,3.67
2018-11-12T03:55:19.707Z,5.40
2018-11-12T03:57:48.469Z,2.85
2018-11-12T04:00:19.634Z,2.33
2018-11-12T04:02:48.486Z,2.20
2018-11-12T04:05:17.251Z,2.65
2018-11-12T04:07:45.970Z,3.58
2018-11-12T04:10:17.357Z,2.92
2018-11-12T04:12:46.095Z,2.45
2018-11-12T04:15:16.045Z,4.53
2018-11-12T04:17:45.393Z,3.00
2018-11-12T04:20:16.592Z,3.00
2018-11-12T04:22:53.686Z,2.27
2018-11-12T04:25:22.630Z,2.52
2018-11-12T04:27:51.448Z,1.92
2018-11-12T04:30:21.287Z,4.55
2018-11-12T04:32:50.013Z,2.12
2018-11-12T04:35:18.782Z,3.55
2018-11-12T04:37:47.535Z,2.25
2018-11-12T04:40:17.421Z,2.17
2018-11-12T04:42:46.525Z,2.02
2018-11-12T04:45:16.466Z,4.03
2018-11-12T04:47:46.037Z,7.17
2018-11-12T04:50:16.777Z,2.55
2018-11-12T04:52:45.697Z,1.90
2018-11-12T04:55:15.791Z,2.12
2018-11-12T04:57:44.894Z,2.80
2018-11-12T05:00:15.716Z,3.45
2018-11-12T05:02:45.551Z,5.65
2018-11-12T05:05:15.425Z,3.45
2018-11-12T05:07:44.547Z,2.35
2018-11-12T05:10:14.391Z,2.95
2018-11-12T05:12:43.762Z,2.70
2018-11-12T05:15:14.491Z,2.15
2018-11-12T05:17:43.325Z,3.10
2018-11-12T05:20:14.128Z,3.05
2018-11-12T05:22:43.103Z,2.20
2018-11-12T05:25:11.942Z,2.15
2018-11-12T05:27:40.643Z,1.67
2018-11-12T05:30:19.182Z,3.05
2018-11-12T05:32:48.130Z,2.20
2018-11-12T05:35:18.188Z,2.98
2018-11-12T05:37:47.031Z,2.08
2018-11-12T05:40:17.125Z,2.75
2018-11-12T05:42:45.976Z,2.55
2018-11-12T05:45:15.786Z,1.98
2018-11-12T05:47:44.513Z,2.67
2018-11-12T05:50:17.175Z,2.95
2018-11-12T05:52:47.019Z,3.40
2018-11-12T05:55:17.923Z,3.12
2018-11-12T05:57:47.001Z,2.90
2018-11-12T06:00:17.633Z,2.77
2018-11-12T06:02:46.385Z,4.72
2018-11-12T06:05:15.933Z,2.50
2018-11-12T06:07:44.698Z,1.95
2018-11-12T06:10:15.553Z,4.22
2018-11-12T06:12:44.656Z,3.20
2018-11-12T06:15:13.747Z,2.62
2018-11-12T06:17:43.140Z,1.95
2018-11-12T06:20:14.144Z,2.02
2018-11-12T06:22:42.920Z,2.27
2018-11-12T06:25:12.931Z,2.15
2018-11-12T06:27:41.635Z,2.40
2018-11-12T06:30:15.821Z,2.35
2018-11-12T06:32:44.551Z,4.30
2018-11-12T06:35:14.092Z,3.47
2018-11-12T06:37:43.483Z,4.85
2018-11-12T06:40:13.815Z,2.52
2018-11-12T06:42:42.713Z,4.83
2018-11-12T06:45:13.833Z,2.50
2018-11-12T06:47:43.352Z,2.30
2018-11-12T06:50:13.420Z,4.03
2018-11-12T06:52:42.139Z,2.85
2018-11-12T06:55:11.867Z,1.50
2018-11-12T06:57:40.836Z,2.80
2018-11-12T07:00:18.133Z,2.70
2018-11-12T07:02:46.932Z,3.20
2018-11-12T07:05:15.977Z,2.37
2018-11-12T07:07:44.793Z,3.08
2018-11-12T07:10:16.624Z,2.35
2018-11-12T07:12:46.233Z,17.50
2018-11-12T07:15:32.722Z,43.10
2018-11-12T07:18:07.289Z,78.97
2018-11-12T07:20:50.967Z,169.15
2018-11-12T07:23:20.061Z,171.05
2018-11-12T07:25:48.897Z,203.02
2018-11-12T07:28:17.668Z,227.97
2018-11-12T07:30:46.386Z,213.77
2018-11-12T07:33:15.133Z,216.42
2018-11-12T07:35:43.875Z,197.95
2018-11-12T07:38:12.697Z,264.77
2018-11-12T07:40:41.424Z,208.95
2018-11-12T07:43:10.271Z,182.05
2018-11-12T07:45:39.110Z,232.95
2018-11-12T07:48:08.338Z,230.62
2018-11-12T07:50:37.107Z,232.70
2018-11-12T07:53:05.933Z,215.68
2018-11-12T07:55:34.774Z,227.90
2018-11-12T07:58:03.843Z,221.70
2018-11-12T08:00:34.120Z,205.40
2018-11-12T08:03:10.518Z,206.02
2018-11-12T08:05:41.011Z,218.15
2018-11-12T08:08:10.617Z,206.70
2018-11-12T08:10:39.499Z,210.60
2018-11-12T08:13:08.249Z,180.40
2018-11-12T08:15:37.073Z,198.53
2018-11-12T08:18:06.017Z,170.38
2018-11-12T08:20:34.753Z,167.35
2018-11-12T08:23:04.110Z,165.82
2018-11-12T08:25:32.917Z,191.18
2018-11-12T08:28:01.683Z,160.78
2018-11-12T08:30:30.574Z,156.37
2018-11-12T08:33:00.268Z,148.00
2018-11-12T08:35:29.117Z,171.25
2018-11-12T08:37:58.207Z,121.28
2018-11-12T08:40:28.004Z,145.45
2018-11-12T08:42:56.658Z,139.05
2018-11-12T08:45:25.677Z,137.03
2018-11-12T08:47:56.026Z,148.80
2018-11-12T08:50:25.854Z,100.75
2018-11-12T08:52:55.372Z,106.43
2018-11-12T08:55:25.497Z,126.02
2018-11-12T08:57:55.629Z,102.62
2018-11-12T09:00:25.173Z,128.32
2018-11-12T09:02:54.009Z,109.32
2018-11-12T09:05:24.098Z,124.30
2018-11-12T09:07:54.364Z,108.87
2018-11-12T09:10:24.925Z,100.42
2018-11-12T09:12:53.640Z,101.05
2018-11-12T09:15:22.455Z,110.88
2018-11-12T09:17:51.266Z,99.72
2018-11-12T09:20:21.314Z,93.67
2018-11-12T09:22:50.258Z,98.62
2018-11-12T09:25:20.388Z,116.22
2018-11-12T09:27:49.140Z,108.55
2018-11-12T09:30:19.630Z,82.80
2018-11-12T09:32:48.612Z,85.20
2018-11-12T09:35:19.679Z,104.67
2018-11-12T09:37:49.505Z,134.10
2018-11-12T09:40:28.565Z,86.40
2018-11-12T09:42:57.271Z,86.60
2018-11-12T09:45:26.097Z,75.42
2018-11-12T09:47:55.107Z,85.92
2018-11-12T09:50:24.948Z,101.38
2018-11-12T09:52:54.809Z,84.80
2018-11-12T09:55:24.778Z,90.25
2018-11-12T09:57:55.117Z,81.37
2018-11-12T10:00:24.088Z,80.85
2018-11-12T10:02:53.359Z,87.25
2018-11-12T10:05:23.165Z,90.55
2018-11-12T10:07:53.676Z,61.68
2018-11-12T10:11:01.331Z,68.78
2018-11-12T10:13:30.965Z,74.77
2018-11-12T10:15:59.992Z,69.20
2018-11-12T10:18:26.741Z,65.72
2018-11-12T10:20:56.385Z,61.37
2018-11-12T10:23:25.112Z,79.20
2018-11-12T10:25:53.962Z,70.05
2018-11-12T10:28:23.532Z,71.50
2018-11-12T10:30:52.343Z,66.05
2018-11-12T10:33:21.407Z,93.05
2018-11-12T10:35:50.202Z,65.55
2018-11-12T10:38:19.197Z,49.23
2018-11-12T10:40:47.957Z,52.38
2018-11-12T10:43:16.596Z,45.35
2018-11-12T10:45:45.409Z,57.93
2018-11-12T10:48:14.184Z,44.83
2018-11-12T10:50:42.959Z,54.18
2018-11-12T10:53:11.671Z,59.95
2018-11-12T10:55:40.545Z,44.70
2018-11-12T10:58:09.215Z,53.68
2018-11-12T11:01:43.462Z,55.70
2018-11-12T11:04:17.772Z,67.58
2018-11-12T11:06:46.484Z,47.53
2018-11-12T11:09:15.410Z,44.45
2018-11-12T11:11:44.173Z,51.95
2018-11-12T11:14:13.155Z,52.83
2018-11-12T11:16:41.868Z,47.85
2018-11-12T11:19:10.583Z,48.33
2018-11-12T11:21:39.644Z,45.05
2018-11-12T11:24:08.564Z,51.53
2018-11-12T11:26:37.324Z,59.15
2018-11-12T11:29:06.754Z,42.78
2018-11-12T11:31:35.590Z,43.08
2018-11-12T11:34:04.327Z,43.30
2018-11-12T11:36:33.094Z,35.95
2018-11-12T11:39:01.809Z,44.42
2018-11-12T11:41:30.541Z,64.50
2018-11-12T11:43:59.283Z,33.35
2018-11-12T11:46:28.003Z,36.80
2018-11-12T11:48:56.894Z,44.25
2018-11-12T11:51:25.678Z,45.98
2018-11-12T11:53:54.529Z,35.50
2018-11-12T11:56:23.287Z,42.30
2018-11-12T11:58:52.244Z,37.75
2018-11-12T12:01:21.057Z,37.67
2018-11-12T12:03:53.833Z,23.40
2018-11-12T12:06:22.611Z,34.27
2018-11-12T12:08:51.469Z,31.73
2018-11-12T12:11:20.073Z,38.90
2018-11-12T12:13:48.830Z,48.95
2018-11-12T12:16:17.612Z,33.15
2018-11-12T12:18:46.500Z,32.98
2018-11-12T12:21:15.179Z,43.58
2018-11-12T12:23:43.973Z,37.28
2018-11-12T12:26:12.782Z,38.05
2018-11-12T12:28:41.800Z,42.23
2018-11-12T12:31:10.616Z,35.20
2018-11-12T12:33:39.313Z,42.43
2018-11-12T12:36:08.158Z,33.08
2018-11-12T12:38:36.822Z,29.07
2018-11-12T12:41:05.839Z,42.67
2018-11-12T12:43:34.625Z,30.32
2018-11-12T12:46:03.486Z,29.52
2018-11-12T12:48:32.209Z,25.80
2018-11-12T12:51:01.047Z,32.28
2018-11-12T12:53:30.624Z,32.23
2018-11-12T12:55:59.553Z,34.30
2018-11-12T12:58:28.334Z,30.20
2018-11-12T13:00:57.038Z,29.30
2018-11-12T13:03:26.052Z,39.55
2018-11-12T13:05:54.792Z,32.40
2018-11-12T13:08:23.482Z,27.10
2018-11-12T13:10:52.184Z,19.23
2018-11-12T13:13:21.057Z,35.05
2018-11-12T13:15:49.792Z,26.20
2018-11-12T13:18:18.531Z,18.05
2018-11-12T13:20:47.757Z,35.55
2018-11-12T13:23:16.515Z,33.92
2018-11-12T13:25:45.237Z,32.88
2018-11-12T13:28:13.989Z,27.17
2018-11-12T13:30:42.877Z,24.30
2018-11-12T13:33:11.613Z,19.45
2018-11-12T13:35:40.342Z,24.87
2018-11-12T13:38:09.103Z,34.48
2018-11-12T13:40:37.926Z,24.87
2018-11-12T13:43:06.611Z,34.10
2018-11-12T13:45:35.309Z,24.27
2018-11-12T13:48:04.025Z,15.55
2018-11-12T13:50:32.869Z,25.70
2018-11-12T13:53:02.897Z,24.55
2018-11-12T13:55:31.645Z,20.68
2018-11-12T13:58:00.887Z,17.40
2018-11-12T14:00:30.783Z,23.83
2018-11-12T14:02:59.974Z,20.60
2018-11-12T14:05:29.372Z,13.75
2018-11-12T14:07:58.079Z,18.55
2018-11-12T14:10:29.175Z,14.65
2018-11-12T14:12:58.796Z,15.30
2018-11-12T14:15:27.814Z,15.95
2018-11-12T14:17:57.076Z,21.65
2018-11-12T14:20:26.261Z,18.40
2018-11-12T14:22:54.893Z,16.00
2018-11-12T14:25:24.559Z,18.42
2018-11-12T14:27:54.459Z,13.50
2018-11-12T14:30:24.803Z,31.48
2018-11-12T14:32:53.591Z,15.95
2018-11-12T14:35:22.356Z,16.15
2018-11-12T14:37:51.063Z,26.42
2018-11-12T14:40:20.043Z,20.10
2018-11-12T14:42:48.882Z,18.62
2018-11-12T14:45:20.550Z,17.70
2018-11-12T14:47:49.394Z,22.82
2018-11-12T14:50:18.121Z,13.83
2018-11-12T14:52:47.177Z,15.88
2018-11-12T14:55:16.807Z,8.48
2018-11-12T14:57:45.809Z,19.15
2018-11-12T15:00:20.985Z,8.48
2018-11-12T15:02:49.922Z,12.68
2018-11-12T15:05:19.909Z,19.25
2018-11-12T15:07:48.692Z,12.98
2018-11-12T15:10:17.525Z,11.95
2018-11-12T15:12:46.879Z,18.85
2018-11-12T15:15:15.660Z,14.93
2018-11-12T15:17:44.605Z,20.62
2018-11-12T15:20:14.811Z,16.62
2018-11-12T15:22:43.909Z,14.47
2018-11-12T15:25:15.545Z,12.35
2018-11-12T15:27:44.532Z,13.88
2018-11-12T15:30:14.677Z,16.75
2018-11-12T15:32:44.148Z,17.57
2018-11-12T15:35:13.490Z,13.45
2018-11-12T15:37:42.889Z,18.52
2018-11-12T15:40:12.200Z,10.93
2018-11-12T15:42:42.008Z,11.38
2018-11-12T15:45:13.266Z,11.35
2018-11-12T15:47:42.614Z,14.45
2018-11-12T15:50:16.182Z,10.23
2018-11-12T15:52:45.600Z,14.23
2018-11-12T15:55:15.828Z,6.92
2018-11-12T15:57:43.258Z,14.03
2018-11-12T16:00:13.837Z,12.35
2018-11-12T16:02:42.563Z,9.15
2018-11-12T16:05:11.993Z,18.00
2018-11-12T16:07:40.934Z,10.18
2018-11-12T16:10:12.089Z,10.25
2018-11-12T16:12:41.092Z,14.58
2018-11-12T16:15:10.471Z,19.92
2018-11-12T16:17:39.642Z,17.12
2018-11-12T16:20:17.829Z,10.03
2018-11-12T16:22:47.339Z,19.60
2018-11-12T16:25:16.655Z,20.37
2018-11-12T16:27:45.465Z,19.70
2018-11-12T16:30:14.476Z,14.07
2018-11-12T16:32:43.914Z,29.15
2018-11-12T16:35:16.557Z,28.45
2018-11-12T16:37:46.019Z,20.72
2018-11-12T16:40:14.838Z,31.48
2018-11-12T16:42:44.693Z,26.02
2018-11-12T16:45:14.001Z,24.95
2018-11-12T16:47:43.552Z,22.15
2018-11-12T16:50:13.320Z,28.05
2018-11-12T16:52:42.158Z,26.07
2018-11-12T16:55:13.461Z,27.90
2018-11-12T16:57:42.409Z,23.60
2018-11-12T17:00:12.690Z,26.97
2018-11-12T17:02:41.952Z,23.77
2018-11-12T17:05:12.347Z,21.48
2018-11-12T17:07:41.313Z,19.52
2018-11-12T17:10:11.825Z,20.70
2018-11-12T17:12:41.674Z,24.95
2018-11-12T17:15:11.193Z,27.58
2018-11-12T17:17:40.172Z,29.10
2018-11-12T17:20:09.736Z,21.62
2018-11-12T17:22:38.648Z,16.93
2018-11-12T17:25:08.532Z,20.97
2018-11-12T17:27:38.115Z,18.80
2018-11-12T17:30:09.404Z,19.80
2018-11-12T17:32:38.425Z,22.13
2018-11-12T17:35:08.681Z,21.02
2018-11-12T17:37:37.811Z,19.60
2018-11-12T17:40:11.474Z,20.30
2018-11-12T17:42:40.197Z,20.75
2018-11-12T17:45:12.733Z,17.77
2018-11-12T17:47:41.545Z,18.60
2018-11-12T17:50:10.581Z,18.23
2018-11-12T17:52:39.723Z,20.95
2018-11-12T17:55:08.540Z,23.55
2018-11-12T17:57:37.694Z,27.37
2018-11-12T18:00:23.416Z,29.18
2018-11-12T18:02:52.143Z,23.38
2018-11-12T18:05:20.927Z,22.98
2018-11-12T18:07:49.844Z,23.18
2018-11-12T18:10:18.727Z,33.75
2018-11-12T18:12:47.545Z,25.95
2018-11-12T18:15:17.870Z,25.20
2018-11-12T18:17:46.617Z,28.00
2018-11-12T18:20:17.878Z,27.32
2018-11-12T18:22:47.447Z,24.27
2018-11-12T18:25:16.377Z,27.22
2018-11-12T18:27:45.217Z,30.05
2018-11-12T18:30:16.974Z,32.50
2018-11-12T18:32:46.588Z,33.00
2018-11-12T18:35:15.321Z,30.55
2018-11-12T18:37:44.095Z,34.05
2018-11-12T18:40:14.213Z,38.60
2018-11-12T18:42:42.959Z,35.13
2018-11-12T18:45:14.811Z,34.55
2018-11-12T18:47:43.786Z,32.58
2018-11-12T18:50:15.087Z,34.58
2018-11-12T18:52:44.137Z,45.50
2018-11-12T18:55:12.882Z,47.88
2018-11-12T18:57:42.190Z,43.42
2018-11-12T19:00:12.329Z,41.80
2018-11-12T19:02:41.114Z,48.23
2018-11-12T19:05:14.458Z,40.80
2018-11-12T19:07:44.231Z,36.75
2018-11-12T19:10:14.631Z,33.10
2018-11-12T19:12:44.305Z,40.10
2018-11-12T19:15:14.233Z,40.60
2018-11-12T19:17:44.188Z,41.55
2018-11-12T19:20:13.288Z,44.27
2018-11-12T19:22:42.221Z,34.25
2018-11-12T19:25:11.980Z,42.17
2018-11-12T19:27:40.919Z,47.93
2018-11-12T19:30:18.978Z,48.45
2018-11-12T19:32:49.729Z,48.65
2018-11-12T19:35:19.928Z,48.00
2018-11-12T19:37:48.749Z,47.65
2018-11-12T19:40:18.953Z,44.73
2018-11-12T19:42:48.900Z,44.30
2018-11-12T19:45:18.388Z,43.15
2018-11-12T19:47:48.438Z,44.25
2018-11-12T19:50:18.341Z,42.62
2018-11-12T19:52:48.154Z,42.95
2018-11-12T19:55:16.992Z,39.58
2018-11-12T19:57:46.423Z,43.15
2018-11-12T20:00:16.717Z,43.17
2018-11-12T20:02:46.944Z,40.88
2018-11-12T20:05:15.705Z,37.95
2018-11-12T20:07:44.973Z,36.40
2018-11-12T20:10:15.549Z,34.00
2018-11-12T20:12:44.483Z,34.63
2018-11-12T20:15:14.457Z,31.80
2018-11-12T20:17:44.063Z,30.52
2018-11-12T20:20:18.027Z,30.30
2018-11-12T20:22:47.416Z,25.82
2018-11-12T20:25:17.156Z,27.10
2018-11-12T20:27:46.313Z,26.60
2018-11-12T20:30:17.897Z,25.75
2018-11-12T20:32:46.986Z,26.95
2018-11-12T20:35:15.839Z,26.40
2018-11-12T20:37:44.609Z,23.87
2018-11-12T20:40:14.220Z,22.70
2018-11-12T20:42:44.080Z,23.80
2018-11-12T20:45:14.111Z,22.55
2018-11-12T20:47:43.763Z,23.62
2018-11-12T20:50:13.263Z,23.45
2018-11-12T20:52:42.562Z,20.70
2018-11-12T20:55:12.266Z,25.82
2018-11-12T20:57:41.354Z,26.55
2018-11-12T21:00:14.137Z,20.08
2018-11-12T21:02:44.283Z,19.80
2018-11-12T21:05:13.765Z,19.85
2018-11-12T21:07:42.547Z,19.73
2018-11-12T21:10:13.489Z,20.32
2018-11-12T21:12:42.638Z,17.65
2018-11-12T21:15:12.820Z,22.17
2018-11-12T21:17:41.854Z,22.82
2018-11-12T21:20:26.665Z,18.55
2018-11-12T21:22:55.668Z,20.80
2018-11-12T21:25:25.728Z,20.10
2018-11-12T21:27:54.543Z,18.80
2018-11-12T21:30:26.431Z,25.40
2018-11-12T21:32:55.270Z,26.07
2018-11-12T21:35:24.025Z,21.62
2018-11-12T21:37:53.888Z,17.73
2018-11-12T21:40:23.897Z,21.05
2018-11-12T21:42:52.839Z,24.67
2018-11-12T21:45:23.267Z,21.75
2018-11-12T21:47:52.191Z,21.93
2018-11-12T21:50:21.695Z,20.82
2018-11-12T21:52:50.815Z,24.65
2018-11-12T21:55:19.529Z,28.57
2018-11-12T21:57:48.323Z,27.60
2018-11-12T22:00:18.973Z,22.17
2018-11-12T22:02:49.005Z,27.00
2018-11-12T22:05:17.798Z,22.25
2018-11-12T22:07:46.690Z,24.75
2018-11-12T22:10:16.438Z,24.77
2018-11-12T22:12:46.570Z,24.20
2018-11-12T22:15:15.293Z,24.32
2018-11-12T22:17:44.035Z,24.50
2018-11-12T22:20:15.065Z,25.30
2018-11-12T22:22:44.537Z,25.90
2018-11-12T22:25:14.593Z,23.77
2018-11-12T22:27:43.948Z,19.95
2018-11-12T22:30:17.655Z,23.32
2018-11-12T22:32:47.613Z,22.82
2018-11-12T22:35:17.633Z,21.25
2018-11-12T22:37:46.732Z,20.72
2018-11-12T22:40:16.329Z,18.37
2018-11-12T22:42:46.895Z,21.40
2018-11-12T22:45:17.086Z,21.68
2018-11-12T22:47:46.701Z,22.70
2018-11-12T22:50:15.385Z,22.07
2018-11-12T22:52:44.923Z,18.55
2018-11-12T22:55:14.845Z,20.43
2018-11-12T22:57:43.553Z,21.80
2018-11-12T23:00:49.332Z,21.87
2018-11-12T23:03:18.119Z,28.10
2018-11-12T23:05:46.953Z,19.40
2018-11-12T23:08:15.753Z,19.48
2018-11-12T23:10:44.500Z,22.77
2018-11-12T23:13:13.228Z,22.07
2018-11-12T23:15:42.076Z,19.62
2018-11-12T23:18:10.914Z,20.20
2018-11-12T23:20:39.652Z,21.35
2018-11-12T23:23:08.461Z,22.30
2018-11-12T23:25:37.267Z,24.32
2018-11-12T23:28:05.981Z,15.40
2018-11-12T23:30:34.721Z,19.35
2018-11-12T23:33:03.553Z,15.83
2018-11-12T23:35:32.419Z,20.37
2018-11-12T23:38:01.210Z,18.30
2018-11-12T23:40:29.963Z,18.80
2018-11-12T23:42:58.705Z,17.23
2018-11-12T23:45:27.425Z,18.50
2018-11-12T23:47:56.177Z,17.50
2018-11-12T23:50:24.945Z,17.10
2018-11-12T23:52:53.844Z,17.05
2018-11-12T23:55:22.573Z,18.40
2018-11-12T23:57:51.609Z,17.20
